sensor_id;sensor_type;location;lat;lon;timestamp;P1;durP1;ratioP1;P2;durP2;ratioP2
62523;SDS011;53689;56.878;60.672;2023-08-06T00:00:42;20.45;;;13.00;;
62523;SDS011;53689;56.878;60.672;2023-08-06T00:03:11;19.17;;;13.68;;
62523;SDS011;53689;56.878;60.672;2023-08-06T00:05:42;18.45;;;13.68;;
62523;SDS011;53689;56.878;60.672;2023-08-06T00:08:10;20.90;;;13.98;;
62523;SDS011;53689;56.878;60.672;2023-08-06T00:10:39;19.63;;;13.45;;
62523;SDS011;53689;56.878;60.672;2023-08-06T00:13:06;18.67;;;13.35;;
62523;SDS011;53689;56.878;60.672;2023-08-06T00:15:34;17.98;;;13.45;;
62523;SDS011;53689;56.878;60.672;2023-08-06T00:18:02;21.00;;;13.85;;
62523;SDS011;53689;56.878;60.672;2023-08-06T00:20:30;19.58;;;13.45;;
62523;SDS011;53689;56.878;60.672;2023-08-06T00:22:59;15.70;;;11.93;;
62523;SDS011;53689;56.878;60.672;2023-08-06T00:25:27;17.13;;;13.52;;
62523;SDS011;53689;56.878;60.672;2023-08-06T00:27:55;21.55;;;13.57;;
62523;SDS011;53689;56.878;60.672;2023-08-06T00:30:22;16.75;;;12.80;;
62523;SDS011;53689;56.878;60.672;2023-08-06T00:32:50;16.38;;;12.85;;
62523;SDS011;53689;56.878;60.672;2023-08-06T00:35:18;17.98;;;12.80;;
62523;SDS011;53689;56.878;60.672;2023-08-06T00:37:45;19.15;;;13.52;;
62523;SDS011;53689;56.878;60.672;2023-08-06T00:40:14;18.08;;;13.20;;
62523;SDS011;53689;56.878;60.672;2023-08-06T00:42:42;17.52;;;13.55;;
62523;SDS011;53689;56.878;60.672;2023-08-06T00:45:10;18.25;;;13.20;;
62523;SDS011;53689;56.878;60.672;2023-08-06T00:47:38;19.27;;;12.98;;
62523;SDS011;53689;56.878;60.672;2023-08-06T00:50:06;19.50;;;12.55;;
62523;SDS011;53689;56.878;60.672;2023-08-06T00:52:34;17.05;;;13.40;;
62523;SDS011;53689;56.878;60.672;2023-08-06T00:55:04;16.42;;;12.95;;
62523;SDS011;53689;56.878;60.672;2023-08-06T00:57:35;17.63;;;12.80;;
62523;SDS011;53689;56.878;60.672;2023-08-06T01:00:03;19.92;;;13.48;;
62523;SDS011;53689;56.878;60.672;2023-08-06T01:02:31;16.42;;;12.75;;
62523;SDS011;53689;56.878;60.672;2023-08-06T01:05:00;19.03;;;13.47;;
62523;SDS011;53689;56.878;60.672;2023-08-06T01:07:33;19.92;;;13.18;;
62523;SDS011;53689;56.878;60.672;2023-08-06T01:10:19;20.27;;;13.30;;
62523;SDS011;53689;56.878;60.672;2023-08-06T01:12:59;17.88;;;13.30;;
62523;SDS011;53689;56.878;60.672;2023-08-06T01:15:40;19.35;;;13.43;;
62523;SDS011;53689;56.878;60.672;2023-08-06T01:18:12;20.90;;;13.07;;
62523;SDS011;53689;56.878;60.672;2023-08-06T01:20:42;22.48;;;12.77;;
62523;SDS011;53689;56.878;60.672;2023-08-06T01:23:10;19.83;;;12.55;;
62523;SDS011;53689;56.878;60.672;2023-08-06T01:25:40;21.13;;;12.98;;
62523;SDS011;53689;56.878;60.672;2023-08-06T01:28:18;20.30;;;12.40;;
62523;SDS011;53689;56.878;60.672;2023-08-06T01:30:55;22.33;;;13.48;;
62523;SDS011;53689;56.878;60.672;2023-08-06T01:33:26;18.00;;;12.68;;
62523;SDS011;53689;56.878;60.672;2023-08-06T01:35:58;17.25;;;12.05;;
62523;SDS011;53689;56.878;60.672;2023-08-06T01:38:27;18.40;;;11.75;;
62523;SDS011;53689;56.878;60.672;2023-08-06T01:40:54;18.40;;;11.82;;
62523;SDS011;53689;56.878;60.672;2023-08-06T01:43:22;15.63;;;11.80;;
62523;SDS011;53689;56.878;60.672;2023-08-06T01:45:50;20.88;;;11.82;;
62523;SDS011;53689;56.878;60.672;2023-08-06T01:48:18;16.48;;;12.10;;
62523;SDS011;53689;56.878;60.672;2023-08-06T01:50:45;17.00;;;11.70;;
62523;SDS011;53689;56.878;60.672;2023-08-06T01:53:14;16.50;;;11.70;;
62523;SDS011;53689;56.878;60.672;2023-08-06T01:55:42;15.70;;;11.65;;
62523;SDS011;53689;56.878;60.672;2023-08-06T01:58:15;17.17;;;11.40;;
62523;SDS011;53689;56.878;60.672;2023-08-06T02:00:42;18.30;;;12.38;;
62523;SDS011;53689;56.878;60.672;2023-08-06T02:03:10;16.42;;;11.32;;
62523;SDS011;53689;56.878;60.672;2023-08-06T02:05:37;17.17;;;12.20;;
62523;SDS011;53689;56.878;60.672;2023-08-06T02:08:06;20.30;;;12.70;;
62523;SDS011;53689;56.878;60.672;2023-08-06T02:10:35;20.77;;;12.52;;
62523;SDS011;53689;56.878;60.672;2023-08-06T02:13:03;19.65;;;12.85;;
62523;SDS011;53689;56.878;60.672;2023-08-06T02:15:31;18.77;;;13.30;;
62523;SDS011;53689;56.878;60.672;2023-08-06T02:17:58;19.48;;;13.23;;
62523;SDS011;53689;56.878;60.672;2023-08-06T02:20:26;22.02;;;13.73;;
62523;SDS011;53689;56.878;60.672;2023-08-06T02:22:54;21.50;;;14.15;;
62523;SDS011;53689;56.878;60.672;2023-08-06T02:25:21;20.38;;;13.73;;
62523;SDS011;53689;56.878;60.672;2023-08-06T02:27:50;21.75;;;13.90;;
62523;SDS011;53689;56.878;60.672;2023-08-06T02:30:18;20.08;;;13.10;;
62523;SDS011;53689;56.878;60.672;2023-08-06T02:32:46;24.95;;;13.85;;
62523;SDS011;53689;56.878;60.672;2023-08-06T02:35:13;18.20;;;12.65;;
62523;SDS011;53689;56.878;60.672;2023-08-06T02:37:41;22.83;;;12.27;;
62523;SDS011;53689;56.878;60.672;2023-08-06T02:40:09;17.83;;;11.60;;
62523;SDS011;53689;56.878;60.672;2023-08-06T02:42:37;15.38;;;11.02;;
62523;SDS011;53689;56.878;60.672;2023-08-06T02:45:07;19.70;;;12.20;;
62523;SDS011;53689;56.878;60.672;2023-08-06T02:47:35;18.88;;;12.68;;
62523;SDS011;53689;56.878;60.672;2023-08-06T02:50:03;19.55;;;11.75;;
62523;SDS011;53689;56.878;60.672;2023-08-06T02:52:32;19.38;;;11.93;;
62523;SDS011;53689;56.878;60.672;2023-08-06T02:54:59;19.45;;;12.73;;
62523;SDS011;53689;56.878;60.672;2023-08-06T02:57:29;18.45;;;12.77;;
62523;SDS011;53689;56.878;60.672;2023-08-06T02:59:57;20.48;;;13.25;;
62523;SDS011;53689;56.878;60.672;2023-08-06T03:02:27;21.75;;;12.63;;
62523;SDS011;53689;56.878;60.672;2023-08-06T03:05:12;23.30;;;12.75;;
62523;SDS011;53689;56.878;60.672;2023-08-06T03:07:43;21.80;;;13.35;;
62523;SDS011;53689;56.878;60.672;2023-08-06T03:10:19;21.48;;;11.55;;
62523;SDS011;53689;56.878;60.672;2023-08-06T03:12:50;21.20;;;13.15;;
62523;SDS011;53689;56.878;60.672;2023-08-06T03:15:18;18.13;;;12.52;;
62523;SDS011;53689;56.878;60.672;2023-08-06T03:17:48;19.98;;;12.55;;
62523;SDS011;53689;56.878;60.672;2023-08-06T03:20:19;17.35;;;12.48;;
62523;SDS011;53689;56.878;60.672;2023-08-06T03:22:47;15.52;;;12.20;;
62523;SDS011;53689;56.878;60.672;2023-08-06T03:25:15;18.15;;;12.20;;
62523;SDS011;53689;56.878;60.672;2023-08-06T03:27:46;18.13;;;12.20;;
62523;SDS011;53689;56.878;60.672;2023-08-06T03:30:17;18.75;;;12.05;;
62523;SDS011;53689;56.878;60.672;2023-08-06T03:32:44;18.75;;;11.63;;
62523;SDS011;53689;56.878;60.672;2023-08-06T03:35:15;16.23;;;11.85;;
62523;SDS011;53689;56.878;60.672;2023-08-06T03:37:43;15.75;;;11.18;;
62523;SDS011;53689;56.878;60.672;2023-08-06T03:40:11;18.58;;;12.32;;
62523;SDS011;53689;56.878;60.672;2023-08-06T03:42:39;16.33;;;12.07;;
62523;SDS011;53689;56.878;60.672;2023-08-06T03:45:07;17.63;;;12.00;;
62523;SDS011;53689;56.878;60.672;2023-08-06T03:47:36;16.67;;;10.98;;
62523;SDS011;53689;56.878;60.672;2023-08-06T03:50:04;16.60;;;10.93;;
62523;SDS011;53689;56.878;60.672;2023-08-06T03:52:34;14.15;;;10.15;;
62523;SDS011;53689;56.878;60.672;2023-08-06T03:55:01;13.10;;;10.75;;
62523;SDS011;53689;56.878;60.672;2023-08-06T03:57:29;22.10;;;11.43;;
62523;SDS011;53689;56.878;60.672;2023-08-06T03:59:57;15.02;;;11.00;;
62523;SDS011;53689;56.878;60.672;2023-08-06T04:02:28;16.27;;;11.00;;
62523;SDS011;53689;56.878;60.672;2023-08-06T04:04:56;12.10;;;9.75;;
62523;SDS011;53689;56.878;60.672;2023-08-06T04:07:24;14.60;;;10.45;;
62523;SDS011;53689;56.878;60.672;2023-08-06T04:09:56;13.57;;;10.02;;
62523;SDS011;53689;56.878;60.672;2023-08-06T04:12:25;14.85;;;9.77;;
62523;SDS011;53689;56.878;60.672;2023-08-06T04:14:53;14.45;;;9.45;;
62523;SDS011;53689;56.878;60.672;2023-08-06T04:17:21;14.70;;;10.65;;
62523;SDS011;53689;56.878;60.672;2023-08-06T04:19:49;12.82;;;9.77;;
62523;SDS011;53689;56.878;60.672;2023-08-06T04:22:18;13.05;;;10.15;;
62523;SDS011;53689;56.878;60.672;2023-08-06T04:24:46;13.00;;;10.02;;
62523;SDS011;53689;56.878;60.672;2023-08-06T04:27:16;13.45;;;9.73;;
62523;SDS011;53689;56.878;60.672;2023-08-06T04:29:45;15.40;;;10.05;;
62523;SDS011;53689;56.878;60.672;2023-08-06T04:32:12;14.80;;;9.77;;
62523;SDS011;53689;56.878;60.672;2023-08-06T04:34:45;14.30;;;9.45;;
62523;SDS011;53689;56.878;60.672;2023-08-06T04:37:14;13.55;;;9.30;;
62523;SDS011;53689;56.878;60.672;2023-08-06T04:39:42;12.75;;;9.20;;
62523;SDS011;53689;56.878;60.672;2023-08-06T04:42:11;13.05;;;8.95;;
62523;SDS011;53689;56.878;60.672;2023-08-06T04:44:40;14.98;;;9.10;;
62523;SDS011;53689;56.878;60.672;2023-08-06T04:47:07;15.82;;;8.68;;
62523;SDS011;53689;56.878;60.672;2023-08-06T04:49:35;17.85;;;9.60;;
62523;SDS011;53689;56.878;60.672;2023-08-06T04:52:03;11.05;;;8.20;;
62523;SDS011;53689;56.878;60.672;2023-08-06T04:54:31;10.45;;;7.40;;
62523;SDS011;53689;56.878;60.672;2023-08-06T04:56:59;11.55;;;6.82;;
62523;SDS011;53689;56.878;60.672;2023-08-06T04:59:26;11.70;;;6.82;;
62523;SDS011;53689;56.878;60.672;2023-08-06T05:01:55;8.95;;;5.90;;
62523;SDS011;53689;56.878;60.672;2023-08-06T05:04:23;10.30;;;6.88;;
62523;SDS011;53689;56.878;60.672;2023-08-06T05:06:51;9.50;;;6.57;;
62523;SDS011;53689;56.878;60.672;2023-08-06T05:09:18;8.57;;;5.82;;
62523;SDS011;53689;56.878;60.672;2023-08-06T05:11:46;7.82;;;5.45;;
62523;SDS011;53689;56.878;60.672;2023-08-06T05:14:14;9.65;;;5.25;;
62523;SDS011;53689;56.878;60.672;2023-08-06T05:16:41;7.78;;;4.97;;
62523;SDS011;53689;56.878;60.672;2023-08-06T05:19:10;7.03;;;5.30;;
62523;SDS011;53689;56.878;60.672;2023-08-06T05:24:06;7.10;;;5.57;;
62523;SDS011;53689;56.878;60.672;2023-08-06T05:26:33;7.25;;;5.40;;
62523;SDS011;53689;56.878;60.672;2023-08-06T05:29:01;7.70;;;5.63;;
62523;SDS011;53689;56.878;60.672;2023-08-06T05:31:28;7.63;;;5.93;;
62523;SDS011;53689;56.878;60.672;2023-08-06T05:33:56;8.32;;;5.32;;
62523;SDS011;53689;56.878;60.672;2023-08-06T05:36:25;9.15;;;5.78;;
62523;SDS011;53689;56.878;60.672;2023-08-06T05:38:55;10.05;;;6.30;;
62523;SDS011;53689;56.878;60.672;2023-08-06T05:41:23;8.95;;;5.65;;
62523;SDS011;53689;56.878;60.672;2023-08-06T05:43:50;9.48;;;6.13;;
62523;SDS011;53689;56.878;60.672;2023-08-06T05:46:18;8.60;;;5.63;;
62523;SDS011;53689;56.878;60.672;2023-08-06T05:48:46;9.02;;;6.32;;
62523;SDS011;53689;56.878;60.672;2023-08-06T05:51:13;8.73;;;6.35;;
62523;SDS011;53689;56.878;60.672;2023-08-06T05:53:42;10.00;;;6.45;;
62523;SDS011;53689;56.878;60.672;2023-08-06T05:56:10;9.93;;;6.45;;
62523;SDS011;53689;56.878;60.672;2023-08-06T05:58:37;9.77;;;6.55;;
62523;SDS011;53689;56.878;60.672;2023-08-06T06:01:05;9.75;;;5.82;;
62523;SDS011;53689;56.878;60.672;2023-08-06T06:03:33;9.52;;;6.50;;
62523;SDS011;53689;56.878;60.672;2023-08-06T06:06:00;7.57;;;5.40;;
62523;SDS011;53689;56.878;60.672;2023-08-06T06:08:28;9.15;;;6.38;;
62523;SDS011;53689;56.878;60.672;2023-08-06T06:10:57;7.53;;;5.82;;
62523;SDS011;53689;56.878;60.672;2023-08-06T06:13:25;8.60;;;5.55;;
62523;SDS011;53689;56.878;60.672;2023-08-06T06:15:54;9.02;;;6.00;;
62523;SDS011;53689;56.878;60.672;2023-08-06T06:18:21;8.35;;;5.30;;
62523;SDS011;53689;56.878;60.672;2023-08-06T06:20:49;6.60;;;4.60;;
62523;SDS011;53689;56.878;60.672;2023-08-06T06:23:16;7.28;;;4.40;;
62523;SDS011;53689;56.878;60.672;2023-08-06T06:25:48;7.43;;;5.47;;
62523;SDS011;53689;56.878;60.672;2023-08-06T06:28:18;9.35;;;5.50;;
62523;SDS011;53689;56.878;60.672;2023-08-06T06:30:46;7.90;;;5.43;;
62523;SDS011;53689;56.878;60.672;2023-08-06T06:33:14;7.90;;;5.20;;
62523;SDS011;53689;56.878;60.672;2023-08-06T06:35:42;7.93;;;5.90;;
62523;SDS011;53689;56.878;60.672;2023-08-06T06:38:10;10.50;;;5.90;;
62523;SDS011;53689;56.878;60.672;2023-08-06T06:40:38;10.32;;;5.40;;
62523;SDS011;53689;56.878;60.672;2023-08-06T06:43:05;9.05;;;5.63;;
62523;SDS011;53689;56.878;60.672;2023-08-06T06:45:35;9.25;;;5.68;;
62523;SDS011;53689;56.878;60.672;2023-08-06T06:48:03;8.48;;;6.38;;
62523;SDS011;53689;56.878;60.672;2023-08-06T06:50:31;8.07;;;5.38;;
62523;SDS011;53689;56.878;60.672;2023-08-06T06:52:58;7.47;;;5.70;;
62523;SDS011;53689;56.878;60.672;2023-08-06T06:55:26;8.73;;;5.78;;
62523;SDS011;53689;56.878;60.672;2023-08-06T06:57:54;8.98;;;6.05;;
62523;SDS011;53689;56.878;60.672;2023-08-06T07:00:21;9.20;;;6.00;;
62523;SDS011;53689;56.878;60.672;2023-08-06T07:02:51;7.05;;;5.90;;
62523;SDS011;53689;56.878;60.672;2023-08-06T07:05:18;8.02;;;6.13;;
62523;SDS011;53689;56.878;60.672;2023-08-06T07:07:46;8.98;;;6.32;;
62523;SDS011;53689;56.878;60.672;2023-08-06T07:10:13;8.15;;;6.03;;
62523;SDS011;53689;56.878;60.672;2023-08-06T07:12:41;8.45;;;6.20;;
62523;SDS011;53689;56.878;60.672;2023-08-06T07:15:09;8.18;;;6.03;;
62523;SDS011;53689;56.878;60.672;2023-08-06T07:17:37;9.00;;;6.65;;
62523;SDS011;53689;56.878;60.672;2023-08-06T07:20:07;9.50;;;6.57;;
62523;SDS011;53689;56.878;60.672;2023-08-06T07:22:35;10.15;;;6.38;;
62523;SDS011;53689;56.878;60.672;2023-08-06T07:25:03;9.70;;;6.93;;
62523;SDS011;53689;56.878;60.672;2023-08-06T07:27:31;8.23;;;6.60;;
62523;SDS011;53689;56.878;60.672;2023-08-06T07:29:59;8.55;;;6.72;;
62523;SDS011;53689;56.878;60.672;2023-08-06T07:32:27;10.05;;;6.90;;
62523;SDS011;53689;56.878;60.672;2023-08-06T07:34:54;8.15;;;6.35;;
62523;SDS011;53689;56.878;60.672;2023-08-06T07:37:23;10.10;;;6.80;;
62523;SDS011;53689;56.878;60.672;2023-08-06T07:39:51;9.55;;;6.20;;
62523;SDS011;53689;56.878;60.672;2023-08-06T07:42:19;8.27;;;6.15;;
62523;SDS011;53689;56.878;60.672;2023-08-06T07:44:49;7.80;;;6.13;;
62523;SDS011;53689;56.878;60.672;2023-08-06T07:47:19;8.00;;;6.10;;
62523;SDS011;53689;56.878;60.672;2023-08-06T07:49:47;9.50;;;7.05;;
62523;SDS011;53689;56.878;60.672;2023-08-06T07:52:14;8.38;;;6.10;;
62523;SDS011;53689;56.878;60.672;2023-08-06T07:54:43;8.45;;;5.65;;
62523;SDS011;53689;56.878;60.672;2023-08-06T07:57:11;9.27;;;6.32;;
62523;SDS011;53689;56.878;60.672;2023-08-06T07:59:38;10.70;;;7.40;;
62523;SDS011;53689;56.878;60.672;2023-08-06T08:02:06;9.52;;;6.47;;
62523;SDS011;53689;56.878;60.672;2023-08-06T08:04:33;8.90;;;6.38;;
62523;SDS011;53689;56.878;60.672;2023-08-06T08:07:01;8.10;;;6.40;;
62523;SDS011;53689;56.878;60.672;2023-08-06T08:09:29;10.60;;;7.03;;
62523;SDS011;53689;56.878;60.672;2023-08-06T08:11:58;12.10;;;6.95;;
62523;SDS011;53689;56.878;60.672;2023-08-06T08:14:27;10.80;;;6.90;;
62523;SDS011;53689;56.878;60.672;2023-08-06T08:16:54;9.38;;;6.78;;
62523;SDS011;53689;56.878;60.672;2023-08-06T08:19:22;9.50;;;6.78;;
62523;SDS011;53689;56.878;60.672;2023-08-06T08:21:50;10.10;;;6.97;;
62523;SDS011;53689;56.878;60.672;2023-08-06T08:24:18;13.93;;;7.10;;
62523;SDS011;53689;56.878;60.672;2023-08-06T08:26:45;9.70;;;6.68;;
62523;SDS011;53689;56.878;60.672;2023-08-06T08:29:15;10.30;;;7.68;;
62523;SDS011;53689;56.878;60.672;2023-08-06T08:31:43;11.88;;;6.97;;
62523;SDS011;53689;56.878;60.672;2023-08-06T08:34:10;10.15;;;8.02;;
62523;SDS011;53689;56.878;60.672;2023-08-06T08:36:39;11.65;;;8.18;;
62523;SDS011;53689;56.878;60.672;2023-08-06T08:39:06;15.52;;;8.35;;
62523;SDS011;53689;56.878;60.672;2023-08-06T08:41:34;11.85;;;7.72;;
62523;SDS011;53689;56.878;60.672;2023-08-06T08:44:03;9.32;;;7.78;;
62523;SDS011;53689;56.878;60.672;2023-08-06T08:46:36;9.43;;;7.32;;
62523;SDS011;53689;56.878;60.672;2023-08-06T08:49:05;10.02;;;7.18;;
62523;SDS011;53689;56.878;60.672;2023-08-06T08:51:33;10.75;;;8.00;;
62523;SDS011;53689;56.878;60.672;2023-08-06T08:54:02;8.20;;;6.93;;
62523;SDS011;53689;56.878;60.672;2023-08-06T08:58:58;13.00;;;8.85;;
62523;SDS011;53689;56.878;60.672;2023-08-06T09:01:26;18.13;;;8.55;;
62523;SDS011;53689;56.878;60.672;2023-08-06T09:03:57;18.25;;;8.70;;
62523;SDS011;53689;56.878;60.672;2023-08-06T09:08:54;12.40;;;7.25;;
62523;SDS011;53689;56.878;60.672;2023-08-06T09:11:28;11.43;;;8.07;;
62523;SDS011;53689;56.878;60.672;2023-08-06T09:13:58;10.15;;;6.93;;
62523;SDS011;53689;56.878;60.672;2023-08-06T09:16:26;8.38;;;6.13;;
62523;SDS011;53689;56.878;60.672;2023-08-06T09:18:55;9.27;;;6.72;;
62523;SDS011;53689;56.878;60.672;2023-08-06T09:21:36;9.38;;;6.43;;
62523;SDS011;53689;56.878;60.672;2023-08-06T09:26:34;9.15;;;6.35;;
62523;SDS011;53689;56.878;60.672;2023-08-06T09:29:04;8.10;;;6.10;;
62523;SDS011;53689;56.878;60.672;2023-08-06T09:31:32;9.60;;;6.90;;
62523;SDS011;53689;56.878;60.672;2023-08-06T09:34:02;7.97;;;6.18;;
62523;SDS011;53689;56.878;60.672;2023-08-06T09:36:39;7.90;;;5.65;;
62523;SDS011;53689;56.878;60.672;2023-08-06T09:39:17;8.68;;;5.95;;
62523;SDS011;53689;56.878;60.672;2023-08-06T09:41:45;7.32;;;5.65;;
62523;SDS011;53689;56.878;60.672;2023-08-06T09:44:16;8.05;;;6.30;;
62523;SDS011;53689;56.878;60.672;2023-08-06T09:46:49;7.80;;;5.85;;
62523;SDS011;53689;56.878;60.672;2023-08-06T09:49:18;9.30;;;5.93;;
62523;SDS011;53689;56.878;60.672;2023-08-06T09:51:50;7.78;;;6.25;;
62523;SDS011;53689;56.878;60.672;2023-08-06T09:54:19;8.57;;;6.43;;
62523;SDS011;53689;56.878;60.672;2023-08-06T09:56:53;9.23;;;7.05;;
62523;SDS011;53689;56.878;60.672;2023-08-06T09:59:22;7.22;;;5.60;;
62523;SDS011;53689;56.878;60.672;2023-08-06T10:01:50;9.10;;;6.55;;
62523;SDS011;53689;56.878;60.672;2023-08-06T10:04:20;7.47;;;5.85;;
62523;SDS011;53689;56.878;60.672;2023-08-06T10:06:52;7.93;;;6.20;;
62523;SDS011;53689;56.878;60.672;2023-08-06T10:09:20;8.75;;;6.28;;
62523;SDS011;53689;56.878;60.672;2023-08-06T10:11:48;8.75;;;6.85;;
62523;SDS011;53689;56.878;60.672;2023-08-06T10:14:19;8.95;;;6.70;;
62523;SDS011;53689;56.878;60.672;2023-08-06T10:16:51;7.82;;;5.80;;
62523;SDS011;53689;56.878;60.672;2023-08-06T10:19:21;8.13;;;5.95;;
62523;SDS011;53689;56.878;60.672;2023-08-06T10:24:45;9.02;;;6.85;;
62523;SDS011;53689;56.878;60.672;2023-08-06T10:27:19;9.23;;;6.40;;
62523;SDS011;53689;56.878;60.672;2023-08-06T10:29:48;7.47;;;5.75;;
62523;SDS011;53689;56.878;60.672;2023-08-06T10:32:16;7.82;;;6.00;;
62523;SDS011;53689;56.878;60.672;2023-08-06T10:34:54;8.30;;;6.15;;
62523;SDS011;53689;56.878;60.672;2023-08-06T10:37:23;8.57;;;6.00;;
62523;SDS011;53689;56.878;60.672;2023-08-06T10:39:51;7.03;;;5.60;;
62523;SDS011;53689;56.878;60.672;2023-08-06T10:42:20;8.35;;;6.38;;
62523;SDS011;53689;56.878;60.672;2023-08-06T10:47:41;8.43;;;6.03;;
62523;SDS011;53689;56.878;60.672;2023-08-06T10:50:12;8.40;;;6.50;;
62523;SDS011;53689;56.878;60.672;2023-08-06T10:52:40;8.73;;;6.68;;
62523;SDS011;53689;56.878;60.672;2023-08-06T10:55:08;8.27;;;6.07;;
62523;SDS011;53689;56.878;60.672;2023-08-06T10:57:36;6.93;;;5.07;;
62523;SDS011;53689;56.878;60.672;2023-08-06T11:00:04;7.70;;;5.53;;
62523;SDS011;53689;56.878;60.672;2023-08-06T11:02:42;7.32;;;4.63;;
62523;SDS011;53689;56.878;60.672;2023-08-06T11:05:12;6.47;;;4.60;;
62523;SDS011;53689;56.878;60.672;2023-08-06T11:07:40;7.50;;;5.07;;
62523;SDS011;53689;56.878;60.672;2023-08-06T11:10:08;7.13;;;4.47;;
62523;SDS011;53689;56.878;60.672;2023-08-06T11:12:37;5.70;;;4.45;;
62523;SDS011;53689;56.878;60.672;2023-08-06T11:15:05;6.47;;;4.40;;
62523;SDS011;53689;56.878;60.672;2023-08-06T11:17:34;7.32;;;4.70;;
62523;SDS011;53689;56.878;60.672;2023-08-06T11:20:02;6.40;;;4.10;;
62523;SDS011;53689;56.878;60.672;2023-08-06T11:22:33;6.05;;;4.10;;
62523;SDS011;53689;56.878;60.672;2023-08-06T11:25:03;4.97;;;3.80;;
62523;SDS011;53689;56.878;60.672;2023-08-06T11:27:32;4.90;;;3.50;;
62523;SDS011;53689;56.878;60.672;2023-08-06T11:30:00;7.88;;;3.85;;
62523;SDS011;53689;56.878;60.672;2023-08-06T11:32:28;5.35;;;3.53;;
62523;SDS011;53689;56.878;60.672;2023-08-06T11:34:55;6.07;;;3.65;;
62523;SDS011;53689;56.878;60.672;2023-08-06T11:37:23;5.93;;;4.03;;
62523;SDS011;53689;56.878;60.672;2023-08-06T11:39:53;5.63;;;4.03;;
62523;SDS011;53689;56.878;60.672;2023-08-06T11:42:20;6.60;;;4.38;;
62523;SDS011;53689;56.878;60.672;2023-08-06T11:44:48;6.35;;;4.78;;
62523;SDS011;53689;56.878;60.672;2023-08-06T11:47:16;7.97;;;5.32;;
62523;SDS011;53689;56.878;60.672;2023-08-06T11:49:44;8.82;;;5.53;;
62523;SDS011;53689;56.878;60.672;2023-08-06T11:52:14;9.30;;;5.63;;
62523;SDS011;53689;56.878;60.672;2023-08-06T11:54:43;7.88;;;6.30;;
62523;SDS011;53689;56.878;60.672;2023-08-06T11:57:13;9.32;;;5.68;;
62523;SDS011;53689;56.878;60.672;2023-08-06T11:59:44;7.78;;;5.57;;
62523;SDS011;53689;56.878;60.672;2023-08-06T12:02:13;7.10;;;5.47;;
62523;SDS011;53689;56.878;60.672;2023-08-06T12:04:57;8.85;;;5.65;;
62523;SDS011;53689;56.878;60.672;2023-08-06T12:07:28;8.75;;;6.07;;
62523;SDS011;53689;56.878;60.672;2023-08-06T12:09:57;8.93;;;6.15;;
62523;SDS011;53689;56.878;60.672;2023-08-06T12:12:27;9.10;;;6.37;;
62523;SDS011;53689;56.878;60.672;2023-08-06T12:14:55;10.65;;;6.60;;
62523;SDS011;53689;56.878;60.672;2023-08-06T12:17:24;11.95;;;6.80;;
62523;SDS011;53689;56.878;60.672;2023-08-06T12:19:54;10.07;;;7.10;;
62523;SDS011;53689;56.878;60.672;2023-08-06T12:22:23;10.00;;;6.40;;
62523;SDS011;53689;56.878;60.672;2023-08-06T12:24:52;8.83;;;6.90;;
62523;SDS011;53689;56.878;60.672;2023-08-06T12:27:20;9.90;;;6.93;;
62523;SDS011;53689;56.878;60.672;2023-08-06T12:29:50;9.00;;;7.03;;
62523;SDS011;53689;56.878;60.672;2023-08-06T12:32:19;10.90;;;7.43;;
62523;SDS011;53689;56.878;60.672;2023-08-06T12:34:47;11.80;;;6.82;;
62523;SDS011;53689;56.878;60.672;2023-08-06T12:37:19;10.02;;;7.20;;
62523;SDS011;53689;56.878;60.672;2023-08-06T12:39:47;11.05;;;6.78;;
62523;SDS011;53689;56.878;60.672;2023-08-06T12:42:16;7.82;;;5.78;;
62523;SDS011;53689;56.878;60.672;2023-08-06T12:44:44;10.20;;;6.70;;
62523;SDS011;53689;56.878;60.672;2023-08-06T12:47:13;7.65;;;5.80;;
62523;SDS011;53689;56.878;60.672;2023-08-06T12:49:41;7.47;;;5.60;;
62523;SDS011;53689;56.878;60.672;2023-08-06T12:52:09;8.77;;;6.13;;
62523;SDS011;53689;56.878;60.672;2023-08-06T12:54:37;10.10;;;5.82;;
62523;SDS011;53689;56.878;60.672;2023-08-06T12:57:05;8.20;;;6.07;;
62523;SDS011;53689;56.878;60.672;2023-08-06T12:59:33;9.95;;;6.45;;
62523;SDS011;53689;56.878;60.672;2023-08-06T13:02:01;8.02;;;6.13;;
62523;SDS011;53689;56.878;60.672;2023-08-06T13:04:30;12.40;;;6.72;;
62523;SDS011;53689;56.878;60.672;2023-08-06T13:09:26;11.18;;;6.28;;
62523;SDS011;53689;56.878;60.672;2023-08-06T13:11:56;9.52;;;6.35;;
62523;SDS011;53689;56.878;60.672;2023-08-06T13:14:24;9.82;;;7.00;;
62523;SDS011;53689;56.878;60.672;2023-08-06T13:16:51;10.95;;;7.18;;
62523;SDS011;53689;56.878;60.672;2023-08-06T13:19:19;9.90;;;7.32;;
62523;SDS011;53689;56.878;60.672;2023-08-06T13:22:02;9.80;;;6.90;;
62523;SDS011;53689;56.878;60.672;2023-08-06T13:24:30;9.98;;;7.53;;
62523;SDS011;53689;56.878;60.672;2023-08-06T13:26:58;10.35;;;7.63;;
62523;SDS011;53689;56.878;60.672;2023-08-06T13:29:26;9.77;;;7.05;;
62523;SDS011;53689;56.878;60.672;2023-08-06T13:31:54;9.98;;;6.97;;
62523;SDS011;53689;56.878;60.672;2023-08-06T13:34:21;11.35;;;7.70;;
62523;SDS011;53689;56.878;60.672;2023-08-06T13:36:49;11.98;;;7.30;;
62523;SDS011;53689;56.878;60.672;2023-08-06T13:39:18;10.15;;;7.15;;
62523;SDS011;53689;56.878;60.672;2023-08-06T13:41:47;9.98;;;6.68;;
62523;SDS011;53689;56.878;60.672;2023-08-06T13:44:14;10.57;;;7.53;;
62523;SDS011;53689;56.878;60.672;2023-08-06T13:46:42;9.90;;;7.40;;
62523;SDS011;53689;56.878;60.672;2023-08-06T13:49:10;11.90;;;7.60;;
62523;SDS011;53689;56.878;60.672;2023-08-06T13:51:38;11.55;;;7.80;;
62523;SDS011;53689;56.878;60.672;2023-08-06T13:54:06;12.20;;;8.20;;
62523;SDS011;53689;56.878;60.672;2023-08-06T13:56:35;11.23;;;7.53;;
62523;SDS011;53689;56.878;60.672;2023-08-06T13:59:03;9.35;;;6.78;;
62523;SDS011;53689;56.878;60.672;2023-08-06T14:01:31;11.38;;;6.28;;
62523;SDS011;53689;56.878;60.672;2023-08-06T14:04:16;8.75;;;5.70;;
62523;SDS011;53689;56.878;60.672;2023-08-06T14:06:44;10.40;;;6.18;;
62523;SDS011;53689;56.878;60.672;2023-08-06T14:09:11;7.72;;;5.75;;
62523;SDS011;53689;56.878;60.672;2023-08-06T14:11:40;7.22;;;5.43;;
62523;SDS011;53689;56.878;60.672;2023-08-06T14:14:08;10.88;;;6.18;;
62523;SDS011;53689;56.878;60.672;2023-08-06T14:16:37;8.50;;;5.85;;
62523;SDS011;53689;56.878;60.672;2023-08-06T14:19:05;10.55;;;5.85;;
62523;SDS011;53689;56.878;60.672;2023-08-06T14:21:33;8.57;;;5.70;;
62523;SDS011;53689;56.878;60.672;2023-08-06T14:24:00;8.70;;;5.97;;
62523;SDS011;53689;56.878;60.672;2023-08-06T14:26:28;8.43;;;5.68;;
62523;SDS011;53689;56.878;60.672;2023-08-06T14:28:57;7.88;;;5.63;;
62523;SDS011;53689;56.878;60.672;2023-08-06T14:31:25;9.10;;;6.13;;
62523;SDS011;53689;56.878;60.672;2023-08-06T14:33:52;10.32;;;6.60;;
62523;SDS011;53689;56.878;60.672;2023-08-06T14:36:20;11.07;;;6.97;;
62523;SDS011;53689;56.878;60.672;2023-08-06T14:38:48;8.05;;;6.32;;
62523;SDS011;53689;56.878;60.672;2023-08-06T14:41:26;8.55;;;6.28;;
62523;SDS011;53689;56.878;60.672;2023-08-06T14:43:54;9.63;;;6.40;;
62523;SDS011;53689;56.878;60.672;2023-08-06T14:46:23;9.60;;;7.30;;
62523;SDS011;53689;56.878;60.672;2023-08-06T14:48:51;10.07;;;6.72;;
62523;SDS011;53689;56.878;60.672;2023-08-06T14:51:18;8.80;;;6.90;;